Wathena, Kansas
Current Conditions -  °F | °C
As of 11:53 AM on Friday 21 Nov 2014 (Local Time) from KSTJ Reporting Station
Overcast Overcast  
Wind Chill: 33°   Ceiling: 1700
Heat Index: 40°   Visibility: 10mi
Dew Point: 27°   Wind: 12mph
Humidity: 60%   Direction: 140°SE
Pressure: 30.2"   Gusts: NA
Location:  39.76°N, 94.95°W
Report Text: KSTJ 211753Z 14010KT 10SM OVC017 04/M03 A3020 RMK AO2 SLP235 T00441028 10044 21067 58018
Loading
Personal Weather Stations






























Interactive Weather Map New forecast layout! Learn more

10-Day Weather Forecast

Advertisements
Track Severe Weather on mobile